sensor_id;sensor_type;location;lat;lon;timestamp;P1;durP1;ratioP1;P2;durP2;ratioP2
15202;SDS011;7702;51.046;5.184;2023-10-09T00:02:10;12.17;;;8.50;;
15202;SDS011;7702;51.046;5.184;2023-10-09T00:04:41;10.43;;;7.97;;
15202;SDS011;7702;51.046;5.184;2023-10-09T00:07:08;12.73;;;8.50;;
15202;SDS011;7702;51.046;5.184;2023-10-09T00:09:37;11.47;;;8.30;;
15202;SDS011;7702;51.046;5.184;2023-10-09T00:12:14;10.07;;;7.70;;
15202;SDS011;7702;51.046;5.184;2023-10-09T00:14:48;10.87;;;8.93;;
15202;SDS011;7702;51.046;5.184;2023-10-09T00:17:20;10.20;;;8.23;;
15202;SDS011;7702;51.046;5.184;2023-10-09T00:19:56;14.30;;;9.37;;
15202;SDS011;7702;51.046;5.184;2023-10-09T00:22:24;13.10;;;8.73;;
15202;SDS011;7702;51.046;5.184;2023-10-09T00:24:54;11.70;;;9.23;;
15202;SDS011;7702;51.046;5.184;2023-10-09T00:27:38;13.67;;;10.07;;
15202;SDS011;7702;51.046;5.184;2023-10-09T00:30:09;11.93;;;8.97;;
15202;SDS011;7702;51.046;5.184;2023-10-09T00:32:36;10.63;;;8.17;;
15202;SDS011;7702;51.046;5.184;2023-10-09T00:35:10;11.30;;;8.43;;
15202;SDS011;7702;51.046;5.184;2023-10-09T00:37:54;10.20;;;8.63;;
15202;SDS011;7702;51.046;5.184;2023-10-09T00:40:31;11.20;;;8.27;;
15202;SDS011;7702;51.046;5.184;2023-10-09T00:42:59;11.17;;;9.13;;
15202;SDS011;7702;51.046;5.184;2023-10-09T00:45:31;12.03;;;8.87;;
15202;SDS011;7702;51.046;5.184;2023-10-09T00:47:57;11.33;;;7.93;;
15202;SDS011;7702;51.046;5.184;2023-10-09T00:50:24;11.47;;;8.70;;
15202;SDS011;7702;51.046;5.184;2023-10-09T00:53:00;10.63;;;7.97;;
15202;SDS011;7702;51.046;5.184;2023-10-09T00:55:34;9.87;;;8.07;;
15202;SDS011;7702;51.046;5.184;2023-10-09T00:58:05;12.07;;;8.77;;
15202;SDS011;7702;51.046;5.184;2023-10-09T01:00:40;11.57;;;8.33;;
15202;SDS011;7702;51.046;5.184;2023-10-09T01:03:10;11.37;;;8.10;;
15202;SDS011;7702;51.046;5.184;2023-10-09T01:08:18;12.87;;;8.43;;
15202;SDS011;7702;51.046;5.184;2023-10-09T01:11:12;10.60;;;7.20;;
15202;SDS011;7702;51.046;5.184;2023-10-09T01:13:46;10.63;;;8.40;;
15202;SDS011;7702;51.046;5.184;2023-10-09T01:16:16;11.57;;;8.30;;
15202;SDS011;7702;51.046;5.184;2023-10-09T01:21:10;10.83;;;7.97;;
15202;SDS011;7702;51.046;5.184;2023-10-09T01:23:42;11.13;;;8.23;;
15202;SDS011;7702;51.046;5.184;2023-10-09T01:29:04;11.73;;;8.00;;
15202;SDS011;7702;51.046;5.184;2023-10-09T01:31:39;13.67;;;8.97;;
15202;SDS011;7702;51.046;5.184;2023-10-09T01:34:15;8.43;;;7.30;;
15202;SDS011;7702;51.046;5.184;2023-10-09T01:36:42;10.63;;;8.03;;
15202;SDS011;7702;51.046;5.184;2023-10-09T01:39:08;9.90;;;8.30;;
15202;SDS011;7702;51.046;5.184;2023-10-09T01:41:54;11.97;;;7.67;;
15202;SDS011;7702;51.046;5.184;2023-10-09T01:44:27;11.97;;;7.77;;
15202;SDS011;7702;51.046;5.184;2023-10-09T01:46:59;8.53;;;7.70;;
15202;SDS011;7702;51.046;5.184;2023-10-09T01:49:41;12.43;;;8.93;;
15202;SDS011;7702;51.046;5.184;2023-10-09T01:52:08;9.37;;;7.63;;
15202;SDS011;7702;51.046;5.184;2023-10-09T01:54:35;11.27;;;8.03;;
15202;SDS011;7702;51.046;5.184;2023-10-09T01:57:11;10.63;;;7.53;;
15202;SDS011;7702;51.046;5.184;2023-10-09T01:59:41;9.03;;;7.80;;
15202;SDS011;7702;51.046;5.184;2023-10-09T02:02:28;10.47;;;7.70;;
15202;SDS011;7702;51.046;5.184;2023-10-09T02:05:03;11.50;;;8.23;;
15202;SDS011;7702;51.046;5.184;2023-10-09T02:07:50;10.43;;;8.17;;
15202;SDS011;7702;51.046;5.184;2023-10-09T02:10:17;9.13;;;7.53;;
15202;SDS011;7702;51.046;5.184;2023-10-09T02:12:55;9.90;;;7.57;;
15202;SDS011;7702;51.046;5.184;2023-10-09T02:15:28;12.10;;;8.73;;
15202;SDS011;7702;51.046;5.184;2023-10-09T02:18:13;10.20;;;7.70;;
15202;SDS011;7702;51.046;5.184;2023-10-09T02:20:49;10.03;;;7.40;;
15202;SDS011;7702;51.046;5.184;2023-10-09T02:23:26;8.07;;;7.17;;
15202;SDS011;7702;51.046;5.184;2023-10-09T02:26:03;8.57;;;7.30;;
15202;SDS011;7702;51.046;5.184;2023-10-09T02:28:31;10.47;;;7.60;;
15202;SDS011;7702;51.046;5.184;2023-10-09T02:31:00;8.33;;;7.30;;
15202;SDS011;7702;51.046;5.184;2023-10-09T02:33:34;8.70;;;7.10;;
15202;SDS011;7702;51.046;5.184;2023-10-09T02:36:01;9.80;;;7.40;;
15202;SDS011;7702;51.046;5.184;2023-10-09T02:38:30;10.53;;;7.63;;
15202;SDS011;7702;51.046;5.184;2023-10-09T02:41:01;7.80;;;6.63;;
15202;SDS011;7702;51.046;5.184;2023-10-09T02:43:30;9.73;;;7.50;;
15202;SDS011;7702;51.046;5.184;2023-10-09T02:46:20;10.70;;;7.43;;
15202;SDS011;7702;51.046;5.184;2023-10-09T02:48:54;10.43;;;6.87;;
15202;SDS011;7702;51.046;5.184;2023-10-09T02:51:22;8.80;;;6.83;;
15202;SDS011;7702;51.046;5.184;2023-10-09T02:53:51;9.97;;;6.87;;
15202;SDS011;7702;51.046;5.184;2023-10-09T02:56:45;10.00;;;7.40;;
15202;SDS011;7702;51.046;5.184;2023-10-09T02:59:12;11.20;;;7.60;;
15202;SDS011;7702;51.046;5.184;2023-10-09T03:01:39;9.63;;;6.83;;
15202;SDS011;7702;51.046;5.184;2023-10-09T03:04:06;10.63;;;7.50;;
15202;SDS011;7702;51.046;5.184;2023-10-09T03:06:35;8.40;;;6.63;;
15202;SDS011;7702;51.046;5.184;2023-10-09T03:09:14;7.97;;;7.07;;
15202;SDS011;7702;51.046;5.184;2023-10-09T03:11:51;6.53;;;5.77;;
15202;SDS011;7702;51.046;5.184;2023-10-09T03:14:20;10.10;;;6.80;;
15202;SDS011;7702;51.046;5.184;2023-10-09T03:16:50;8.60;;;6.87;;
15202;SDS011;7702;51.046;5.184;2023-10-09T03:19:15;8.20;;;6.60;;
15202;SDS011;7702;51.046;5.184;2023-10-09T03:21:41;8.97;;;7.30;;
15202;SDS011;7702;51.046;5.184;2023-10-09T03:24:07;9.53;;;7.73;;
15202;SDS011;7702;51.046;5.184;2023-10-09T03:26:33;11.47;;;7.37;;
15202;SDS011;7702;51.046;5.184;2023-10-09T03:28:59;11.40;;;7.00;;
15202;SDS011;7702;51.046;5.184;2023-10-09T03:31:31;8.87;;;7.67;;
15202;SDS011;7702;51.046;5.184;2023-10-09T03:33:59;10.30;;;7.07;;
15202;SDS011;7702;51.046;5.184;2023-10-09T03:36:25;9.97;;;7.13;;
15202;SDS011;7702;51.046;5.184;2023-10-09T03:38:55;9.07;;;7.47;;
15202;SDS011;7702;51.046;5.184;2023-10-09T03:41:25;11.90;;;7.40;;
15202;SDS011;7702;51.046;5.184;2023-10-09T03:43:54;8.00;;;6.70;;
15202;SDS011;7702;51.046;5.184;2023-10-09T03:46:20;11.97;;;7.30;;
15202;SDS011;7702;51.046;5.184;2023-10-09T03:48:50;10.77;;;7.40;;
15202;SDS011;7702;51.046;5.184;2023-10-09T03:51:23;9.83;;;7.37;;
15202;SDS011;7702;51.046;5.184;2023-10-09T03:53:49;9.90;;;7.33;;
15202;SDS011;7702;51.046;5.184;2023-10-09T03:56:16;8.70;;;7.70;;
15202;SDS011;7702;51.046;5.184;2023-10-09T03:58:43;10.60;;;6.87;;
15202;SDS011;7702;51.046;5.184;2023-10-09T04:01:11;10.23;;;7.40;;
15202;SDS011;7702;51.046;5.184;2023-10-09T04:03:47;10.10;;;8.17;;
15202;SDS011;7702;51.046;5.184;2023-10-09T04:06:12;10.73;;;7.63;;
15202;SDS011;7702;51.046;5.184;2023-10-09T04:08:38;9.27;;;7.37;;
15202;SDS011;7702;51.046;5.184;2023-10-09T04:11:11;11.33;;;7.93;;
15202;SDS011;7702;51.046;5.184;2023-10-09T04:13:43;10.83;;;7.77;;
15202;SDS011;7702;51.046;5.184;2023-10-09T04:16:12;11.47;;;7.73;;
15202;SDS011;7702;51.046;5.184;2023-10-09T04:19:01;10.87;;;8.47;;
15202;SDS011;7702;51.046;5.184;2023-10-09T04:21:31;12.67;;;8.30;;
15202;SDS011;7702;51.046;5.184;2023-10-09T04:24:00;11.97;;;8.40;;
15202;SDS011;7702;51.046;5.184;2023-10-09T04:26:39;8.97;;;7.17;;
15202;SDS011;7702;51.046;5.184;2023-10-09T04:31:46;11.43;;;7.50;;
15202;SDS011;7702;51.046;5.184;2023-10-09T04:34:19;10.03;;;8.10;;
15202;SDS011;7702;51.046;5.184;2023-10-09T04:36:54;10.33;;;8.10;;
15202;SDS011;7702;51.046;5.184;2023-10-09T04:39:39;9.57;;;8.00;;
15202;SDS011;7702;51.046;5.184;2023-10-09T04:42:12;12.17;;;8.00;;
15202;SDS011;7702;51.046;5.184;2023-10-09T04:44:45;12.97;;;8.53;;
15202;SDS011;7702;51.046;5.184;2023-10-09T04:47:30;10.47;;;7.80;;
15202;SDS011;7702;51.046;5.184;2023-10-09T04:50:07;10.17;;;8.37;;
15202;SDS011;7702;51.046;5.184;2023-10-09T04:53:00;10.83;;;7.67;;
15202;SDS011;7702;51.046;5.184;2023-10-09T04:55:39;10.13;;;8.50;;
15202;SDS011;7702;51.046;5.184;2023-10-09T04:58:09;12.23;;;8.17;;
15202;SDS011;7702;51.046;5.184;2023-10-09T05:00:39;9.80;;;7.33;;
15202;SDS011;7702;51.046;5.184;2023-10-09T05:03:07;10.53;;;7.83;;
15202;SDS011;7702;51.046;5.184;2023-10-09T05:05:37;10.13;;;8.33;;
15202;SDS011;7702;51.046;5.184;2023-10-09T05:08:14;11.83;;;8.63;;
15202;SDS011;7702;51.046;5.184;2023-10-09T05:10:51;9.63;;;8.33;;
15202;SDS011;7702;51.046;5.184;2023-10-09T05:13:41;11.30;;;8.60;;
15202;SDS011;7702;51.046;5.184;2023-10-09T05:16:07;13.10;;;9.10;;
15202;SDS011;7702;51.046;5.184;2023-10-09T05:18:43;13.57;;;8.80;;
15202;SDS011;7702;51.046;5.184;2023-10-09T05:21:31;11.53;;;8.93;;
15202;SDS011;7702;51.046;5.184;2023-10-09T05:23:58;12.87;;;8.23;;
15202;SDS011;7702;51.046;5.184;2023-10-09T05:26:39;12.73;;;8.60;;
15202;SDS011;7702;51.046;5.184;2023-10-09T05:29:15;11.17;;;8.87;;
15202;SDS011;7702;51.046;5.184;2023-10-09T05:31:52;13.33;;;9.40;;
15202;SDS011;7702;51.046;5.184;2023-10-09T05:34:36;12.37;;;8.47;;
15202;SDS011;7702;51.046;5.184;2023-10-09T05:37:21;13.67;;;8.77;;
15202;SDS011;7702;51.046;5.184;2023-10-09T05:39:50;11.97;;;9.00;;
15202;SDS011;7702;51.046;5.184;2023-10-09T05:42:29;12.83;;;9.47;;
15202;SDS011;7702;51.046;5.184;2023-10-09T05:47:50;11.97;;;8.30;;
15202;SDS011;7702;51.046;5.184;2023-10-09T05:50:16;11.17;;;9.23;;
15202;SDS011;7702;51.046;5.184;2023-10-09T05:52:42;12.83;;;8.50;;
15202;SDS011;7702;51.046;5.184;2023-10-09T05:55:28;12.63;;;8.67;;
15202;SDS011;7702;51.046;5.184;2023-10-09T05:58:13;12.67;;;8.97;;
15202;SDS011;7702;51.046;5.184;2023-10-09T06:00:44;11.33;;;9.13;;
15202;SDS011;7702;51.046;5.184;2023-10-09T06:03:29;14.27;;;8.80;;
15202;SDS011;7702;51.046;5.184;2023-10-09T06:06:13;12.30;;;8.67;;
15202;SDS011;7702;51.046;5.184;2023-10-09T06:09:05;9.93;;;8.10;;
15202;SDS011;7702;51.046;5.184;2023-10-09T06:11:43;13.43;;;9.10;;
15202;SDS011;7702;51.046;5.184;2023-10-09T06:14:13;13.07;;;9.43;;
15202;SDS011;7702;51.046;5.184;2023-10-09T06:16:49;13.03;;;9.10;;
15202;SDS011;7702;51.046;5.184;2023-10-09T06:19:22;13.93;;;9.20;;
15202;SDS011;7702;51.046;5.184;2023-10-09T06:21:59;14.23;;;9.80;;
15202;SDS011;7702;51.046;5.184;2023-10-09T06:24:37;13.90;;;9.13;;
15202;SDS011;7702;51.046;5.184;2023-10-09T06:27:19;14.77;;;9.40;;
15202;SDS011;7702;51.046;5.184;2023-10-09T06:30:11;10.53;;;8.63;;
15202;SDS011;7702;51.046;5.184;2023-10-09T06:32:40;11.10;;;9.17;;
15202;SDS011;7702;51.046;5.184;2023-10-09T06:35:15;12.80;;;9.73;;
15202;SDS011;7702;51.046;5.184;2023-10-09T06:37:42;14.07;;;9.53;;
15202;SDS011;7702;51.046;5.184;2023-10-09T06:40:26;13.23;;;9.27;;
15202;SDS011;7702;51.046;5.184;2023-10-09T06:43:04;13.83;;;9.03;;
15202;SDS011;7702;51.046;5.184;2023-10-09T06:45:52;13.33;;;9.73;;
15202;SDS011;7702;51.046;5.184;2023-10-09T06:48:51;13.43;;;9.93;;
15202;SDS011;7702;51.046;5.184;2023-10-09T06:51:22;13.77;;;9.43;;
15202;SDS011;7702;51.046;5.184;2023-10-09T06:53:51;13.83;;;9.90;;
15202;SDS011;7702;51.046;5.184;2023-10-09T06:58:52;13.90;;;9.80;;
15202;SDS011;7702;51.046;5.184;2023-10-09T07:01:22;15.37;;;10.47;;
15202;SDS011;7702;51.046;5.184;2023-10-09T07:04:08;13.30;;;10.00;;
15202;SDS011;7702;51.046;5.184;2023-10-09T07:06:57;16.33;;;10.83;;
15202;SDS011;7702;51.046;5.184;2023-10-09T07:09:24;13.00;;;10.23;;
15202;SDS011;7702;51.046;5.184;2023-10-09T07:12:07;15.23;;;10.00;;
15202;SDS011;7702;51.046;5.184;2023-10-09T07:14:39;12.37;;;9.67;;
15202;SDS011;7702;51.046;5.184;2023-10-09T07:17:05;13.83;;;10.33;;
15202;SDS011;7702;51.046;5.184;2023-10-09T07:20:02;12.23;;;9.97;;
15202;SDS011;7702;51.046;5.184;2023-10-09T07:22:54;16.60;;;9.63;;
15202;SDS011;7702;51.046;5.184;2023-10-09T07:25:38;13.03;;;9.60;;
15202;SDS011;7702;51.046;5.184;2023-10-09T07:28:23;11.77;;;9.33;;
15202;SDS011;7702;51.046;5.184;2023-10-09T07:31:08;13.07;;;10.43;;
15202;SDS011;7702;51.046;5.184;2023-10-09T07:33:49;14.40;;;10.10;;
15202;SDS011;7702;51.046;5.184;2023-10-09T07:36:25;14.03;;;10.27;;
15202;SDS011;7702;51.046;5.184;2023-10-09T07:39:02;13.70;;;10.43;;
15202;SDS011;7702;51.046;5.184;2023-10-09T07:41:38;14.20;;;10.60;;
15202;SDS011;7702;51.046;5.184;2023-10-09T07:44:09;15.27;;;10.87;;
15202;SDS011;7702;51.046;5.184;2023-10-09T07:46:44;12.53;;;9.93;;
15202;SDS011;7702;51.046;5.184;2023-10-09T07:49:33;14.67;;;10.93;;
15202;SDS011;7702;51.046;5.184;2023-10-09T07:52:02;15.50;;;11.13;;
15202;SDS011;7702;51.046;5.184;2023-10-09T07:54:29;14.13;;;10.07;;
15202;SDS011;7702;51.046;5.184;2023-10-09T07:56:58;16.83;;;10.97;;
15202;SDS011;7702;51.046;5.184;2023-10-09T07:59:41;14.80;;;10.80;;
15202;SDS011;7702;51.046;5.184;2023-10-09T08:02:19;16.27;;;10.30;;
15202;SDS011;7702;51.046;5.184;2023-10-09T08:04:57;17.63;;;10.60;;
15202;SDS011;7702;51.046;5.184;2023-10-09T08:07:43;17.17;;;11.70;;
15202;SDS011;7702;51.046;5.184;2023-10-09T08:10:22;14.87;;;10.73;;
15202;SDS011;7702;51.046;5.184;2023-10-09T08:12:48;13.13;;;10.00;;
15202;SDS011;7702;51.046;5.184;2023-10-09T08:15:14;15.23;;;10.50;;
15202;SDS011;7702;51.046;5.184;2023-10-09T08:20:16;13.13;;;9.33;;
15202;SDS011;7702;51.046;5.184;2023-10-09T08:22:42;12.70;;;9.87;;
15202;SDS011;7702;51.046;5.184;2023-10-09T08:25:11;14.37;;;10.27;;
15202;SDS011;7702;51.046;5.184;2023-10-09T08:27:56;12.43;;;10.27;;
15202;SDS011;7702;51.046;5.184;2023-10-09T08:30:51;14.60;;;10.47;;
15202;SDS011;7702;51.046;5.184;2023-10-09T08:33:20;13.93;;;10.93;;
15202;SDS011;7702;51.046;5.184;2023-10-09T08:35:54;15.40;;;10.50;;
15202;SDS011;7702;51.046;5.184;2023-10-09T08:38:26;14.47;;;10.63;;
15202;SDS011;7702;51.046;5.184;2023-10-09T08:41:05;15.60;;;11.37;;
15202;SDS011;7702;51.046;5.184;2023-10-09T08:43:41;17.47;;;10.90;;
15202;SDS011;7702;51.046;5.184;2023-10-09T08:46:12;14.83;;;10.90;;
15202;SDS011;7702;51.046;5.184;2023-10-09T08:48:43;14.70;;;11.47;;
15202;SDS011;7702;51.046;5.184;2023-10-09T08:51:10;15.70;;;11.80;;
15202;SDS011;7702;51.046;5.184;2023-10-09T08:53:36;11.67;;;9.00;;
15202;SDS011;7702;51.046;5.184;2023-10-09T08:56:08;15.83;;;11.03;;
15202;SDS011;7702;51.046;5.184;2023-10-09T08:58:40;14.40;;;10.63;;
15202;SDS011;7702;51.046;5.184;2023-10-09T09:01:06;14.83;;;10.60;;
15202;SDS011;7702;51.046;5.184;2023-10-09T09:03:38;14.50;;;10.53;;
15202;SDS011;7702;51.046;5.184;2023-10-09T09:06:06;14.93;;;9.77;;
15202;SDS011;7702;51.046;5.184;2023-10-09T09:08:32;13.83;;;9.60;;
15202;SDS011;7702;51.046;5.184;2023-10-09T09:13:40;12.13;;;9.63;;
15202;SDS011;7702;51.046;5.184;2023-10-09T09:16:20;12.87;;;9.90;;
15202;SDS011;7702;51.046;5.184;2023-10-09T09:18:53;13.10;;;9.33;;
15202;SDS011;7702;51.046;5.184;2023-10-09T09:21:50;12.63;;;9.20;;
15202;SDS011;7702;51.046;5.184;2023-10-09T09:24:23;12.87;;;10.03;;
15202;SDS011;7702;51.046;5.184;2023-10-09T09:26:57;12.27;;;9.73;;
15202;SDS011;7702;51.046;5.184;2023-10-09T09:32:06;11.87;;;9.00;;
15202;SDS011;7702;51.046;5.184;2023-10-09T09:34:49;12.97;;;8.83;;
15202;SDS011;7702;51.046;5.184;2023-10-09T09:37:29;11.60;;;9.50;;
15202;SDS011;7702;51.046;5.184;2023-10-09T09:40:02;11.10;;;8.73;;
15202;SDS011;7702;51.046;5.184;2023-10-09T09:43:02;13.70;;;9.80;;
15202;SDS011;7702;51.046;5.184;2023-10-09T09:45:34;11.03;;;8.73;;
15202;SDS011;7702;51.046;5.184;2023-10-09T09:48:04;11.87;;;9.00;;
15202;SDS011;7702;51.046;5.184;2023-10-09T09:50:32;13.83;;;9.57;;
15202;SDS011;7702;51.046;5.184;2023-10-09T09:52:58;9.67;;;8.63;;
15202;SDS011;7702;51.046;5.184;2023-10-09T09:55:25;13.77;;;9.53;;
15202;SDS011;7702;51.046;5.184;2023-10-09T09:57:58;12.10;;;7.97;;
15202;SDS011;7702;51.046;5.184;2023-10-09T10:00:29;9.50;;;7.77;;
15202;SDS011;7702;51.046;5.184;2023-10-09T10:03:14;14.20;;;8.43;;
15202;SDS011;7702;51.046;5.184;2023-10-09T10:05:43;9.33;;;8.33;;
15202;SDS011;7702;51.046;5.184;2023-10-09T10:08:17;10.17;;;8.03;;
15202;SDS011;7702;51.046;5.184;2023-10-09T10:10:45;11.90;;;7.83;;
15202;SDS011;7702;51.046;5.184;2023-10-09T10:16:08;11.13;;;8.07;;
15202;SDS011;7702;51.046;5.184;2023-10-09T10:21:46;10.63;;;7.40;;
15202;SDS011;7702;51.046;5.184;2023-10-09T10:35:40;8.53;;;7.03;;
15202;SDS011;7702;51.046;5.184;2023-10-09T10:38:28;10.43;;;7.20;;
15202;SDS011;7702;51.046;5.184;2023-10-09T10:41:11;12.13;;;7.07;;
15202;SDS011;7702;51.046;5.184;2023-10-09T10:43:41;9.00;;;7.03;;
15202;SDS011;7702;51.046;5.184;2023-10-09T10:46:17;10.27;;;7.57;;
15202;SDS011;7702;51.046;5.184;2023-10-09T10:48:55;11.47;;;7.63;;
15202;SDS011;7702;51.046;5.184;2023-10-09T10:51:27;9.10;;;7.83;;
15202;SDS011;7702;51.046;5.184;2023-10-09T10:54:02;11.13;;;7.00;;
15202;SDS011;7702;51.046;5.184;2023-10-09T10:56:48;11.97;;;7.70;;
15202;SDS011;7702;51.046;5.184;2023-10-09T10:59:14;11.00;;;7.20;;
15202;SDS011;7702;51.046;5.184;2023-10-09T11:01:47;8.67;;;6.73;;
15202;SDS011;7702;51.046;5.184;2023-10-09T11:04:26;9.30;;;6.70;;
15202;SDS011;7702;51.046;5.184;2023-10-09T11:07:04;10.53;;;7.10;;
15202;SDS011;7702;51.046;5.184;2023-10-09T11:09:50;10.20;;;7.30;;
15202;SDS011;7702;51.046;5.184;2023-10-09T11:15:14;10.47;;;6.87;;
15202;SDS011;7702;51.046;5.184;2023-10-09T11:18:01;10.90;;;6.57;;
15202;SDS011;7702;51.046;5.184;2023-10-09T11:20:36;13.20;;;6.90;;
15202;SDS011;7702;51.046;5.184;2023-10-09T11:23:03;10.17;;;7.60;;
15202;SDS011;7702;51.046;5.184;2023-10-09T11:25:37;11.47;;;6.97;;
15202;SDS011;7702;51.046;5.184;2023-10-09T11:31:13;8.73;;;6.97;;
15202;SDS011;7702;51.046;5.184;2023-10-09T11:36:19;9.73;;;6.60;;
15202;SDS011;7702;51.046;5.184;2023-10-09T11:38:56;10.00;;;6.60;;
15202;SDS011;7702;51.046;5.184;2023-10-09T11:41:41;8.80;;;6.80;;
15202;SDS011;7702;51.046;5.184;2023-10-09T11:44:07;10.17;;;6.60;;
15202;SDS011;7702;51.046;5.184;2023-10-09T11:46:59;8.83;;;7.20;;
15202;SDS011;7702;51.046;5.184;2023-10-09T11:49:50;8.40;;;6.50;;
15202;SDS011;7702;51.046;5.184;2023-10-09T11:52:30;10.17;;;6.87;;
15202;SDS011;7702;51.046;5.184;2023-10-09T11:55:00;12.63;;;6.97;;
15202;SDS011;7702;51.046;5.184;2023-10-09T11:57:27;10.13;;;6.93;;
15202;SDS011;7702;51.046;5.184;2023-10-09T12:00:04;9.10;;;6.83;;
15202;SDS011;7702;51.046;5.184;2023-10-09T12:02:50;12.00;;;8.07;;
15202;SDS011;7702;51.046;5.184;2023-10-09T12:05:15;12.60;;;7.43;;
15202;SDS011;7702;51.046;5.184;2023-10-09T12:07:46;10.47;;;7.77;;
15202;SDS011;7702;51.046;5.184;2023-10-09T12:10:19;10.27;;;7.70;;
15202;SDS011;7702;51.046;5.184;2023-10-09T12:12:50;12.33;;;7.50;;
15202;SDS011;7702;51.046;5.184;2023-10-09T12:15:16;10.70;;;6.57;;
15202;SDS011;7702;51.046;5.184;2023-10-09T12:17:45;10.00;;;7.37;;
15202;SDS011;7702;51.046;5.184;2023-10-09T12:20:15;8.37;;;7.17;;
15202;SDS011;7702;51.046;5.184;2023-10-09T12:23:00;12.40;;;8.53;;
15202;SDS011;7702;51.046;5.184;2023-10-09T12:25:31;14.10;;;7.57;;
15202;SDS011;7702;51.046;5.184;2023-10-09T12:28:00;8.63;;;7.73;;
15202;SDS011;7702;51.046;5.184;2023-10-09T12:30:30;9.23;;;7.17;;
15202;SDS011;7702;51.046;5.184;2023-10-09T12:33:03;12.47;;;7.77;;
15202;SDS011;7702;51.046;5.184;2023-10-09T12:35:29;12.23;;;8.10;;
15202;SDS011;7702;51.046;5.184;2023-10-09T12:37:59;12.67;;;8.17;;
15202;SDS011;7702;51.046;5.184;2023-10-09T12:40:25;11.47;;;8.37;;
15202;SDS011;7702;51.046;5.184;2023-10-09T12:42:56;11.90;;;7.43;;
15202;SDS011;7702;51.046;5.184;2023-10-09T12:45:24;13.10;;;8.60;;
15202;SDS011;7702;51.046;5.184;2023-10-09T12:47:58;13.83;;;8.90;;
15202;SDS011;7702;51.046;5.184;2023-10-09T12:50:27;11.13;;;8.90;;
15202;SDS011;7702;51.046;5.184;2023-10-09T12:52:59;12.97;;;8.87;;
15202;SDS011;7702;51.046;5.184;2023-10-09T12:55:34;10.27;;;8.13;;
15202;SDS011;7702;51.046;5.184;2023-10-09T12:58:01;10.10;;;7.87;;
15202;SDS011;7702;51.046;5.184;2023-10-09T13:00:36;10.27;;;7.70;;
15202;SDS011;7702;51.046;5.184;2023-10-09T13:03:05;11.77;;;8.70;;
15202;SDS011;7702;51.046;5.184;2023-10-09T13:05:41;11.13;;;9.40;;
15202;SDS011;7702;51.046;5.184;2023-10-09T13:08:23;11.63;;;8.57;;
15202;SDS011;7702;51.046;5.184;2023-10-09T13:10:56;11.03;;;8.67;;
15202;SDS011;7702;51.046;5.184;2023-10-09T13:13:35;10.97;;;8.90;;
15202;SDS011;7702;51.046;5.184;2023-10-09T13:16:17;11.43;;;9.37;;
15202;SDS011;7702;51.046;5.184;2023-10-09T13:18:53;12.80;;;8.80;;
15202;SDS011;7702;51.046;5.184;2023-10-09T13:21:21;13.83;;;9.93;;
15202;SDS011;7702;51.046;5.184;2023-10-09T13:23:47;15.27;;;10.00;;
15202;SDS011;7702;51.046;5.184;2023-10-09T13:26:18;10.43;;;8.90;;
15202;SDS011;7702;51.046;5.184;2023-10-09T13:28:49;10.23;;;9.23;;
15202;SDS011;7702;51.046;5.184;2023-10-09T13:31:16;17.73;;;9.10;;
15202;SDS011;7702;51.046;5.184;2023-10-09T13:33:43;13.43;;;9.50;;
15202;SDS011;7702;51.046;5.184;2023-10-09T13:36:10;10.50;;;9.27;;
15202;SDS011;7702;51.046;5.184;2023-10-09T13:38:44;12.10;;;8.63;;
15202;SDS011;7702;51.046;5.184;2023-10-09T13:41:11;12.87;;;9.20;;
15202;SDS011;7702;51.046;5.184;2023-10-09T13:43:41;9.80;;;8.70;;
15202;SDS011;7702;51.046;5.184;2023-10-09T13:46:10;11.90;;;9.13;;
15202;SDS011;7702;51.046;5.184;2023-10-09T13:48:37;9.90;;;8.53;;
15202;SDS011;7702;51.046;5.184;2023-10-09T13:51:06;12.37;;;9.70;;
15202;SDS011;7702;51.046;5.184;2023-10-09T13:53:34;13.10;;;9.87;;
15202;SDS011;7702;51.046;5.184;2023-10-09T13:56:19;10.93;;;9.30;;
15202;SDS011;7702;51.046;5.184;2023-10-09T13:58:49;16.30;;;10.93;;
15202;SDS011;7702;51.046;5.184;2023-10-09T14:01:19;14.20;;;11.00;;
15202;SDS011;7702;51.046;5.184;2023-10-09T14:03:55;13.73;;;10.33;;
15202;SDS011;7702;51.046;5.184;2023-10-09T14:06:22;13.43;;;9.77;;
15202;SDS011;7702;51.046;5.184;2023-10-09T14:09:02;13.90;;;9.73;;
15202;SDS011;7702;51.046;5.184;2023-10-09T14:11:30;16.07;;;10.30;;
15202;SDS011;7702;51.046;5.184;2023-10-09T14:13:57;13.20;;;10.17;;
15202;SDS011;7702;51.046;5.184;2023-10-09T14:16:27;13.73;;;9.60;;
15202;SDS011;7702;51.046;5.184;2023-10-09T14:18:54;12.90;;;10.43;;
15202;SDS011;7702;51.046;5.184;2023-10-09T14:21:26;12.13;;;10.80;;
15202;SDS011;7702;51.046;5.184;2023-10-09T14:23:57;18.20;;;10.80;;
15202;SDS011;7702;51.046;5.184;2023-10-09T14:26:26;15.73;;;9.93;;
15202;SDS011;7702;51.046;5.184;2023-10-09T14:28:53;11.77;;;8.77;;
15202;SDS011;7702;51.046;5.184;2023-10-09T14:31:21;17.30;;;10.57;;
15202;SDS011;7702;51.046;5.184;2023-10-09T14:33:52;12.97;;;9.80;;
15202;SDS011;7702;51.046;5.184;2023-10-09T14:36:19;14.40;;;10.20;;
15202;SDS011;7702;51.046;5.184;2023-10-09T14:38:47;14.20;;;10.17;;
15202;SDS011;7702;51.046;5.184;2023-10-09T14:41:17;12.70;;;9.43;;
15202;SDS011;7702;51.046;5.184;2023-10-09T14:43:46;12.57;;;9.83;;
15202;SDS011;7702;51.046;5.184;2023-10-09T14:46:13;15.63;;;10.40;;
15202;SDS011;7702;51.046;5.184;2023-10-09T14:48:39;13.00;;;10.87;;
15202;SDS011;7702;51.046;5.184;2023-10-09T14:51:06;14.13;;;10.77;;
15202;SDS011;7702;51.046;5.184;2023-10-09T14:53:35;14.57;;;11.17;;
15202;SDS011;7702;51.046;5.184;2023-10-09T14:56:01;14.57;;;11.37;;
15202;SDS011;7702;51.046;5.184;2023-10-09T14:58:33;13.90;;;10.53;;
15202;SDS011;7702;51.046;5.184;2023-10-09T15:01:10;14.43;;;11.60;;
15202;SDS011;7702;51.046;5.184;2023-10-09T15:03:37;19.23;;;12.30;;
15202;SDS011;7702;51.046;5.184;2023-10-09T15:06:03;14.53;;;11.33;;
15202;SDS011;7702;51.046;5.184;2023-10-09T15:08:34;15.63;;;10.97;;
15202;SDS011;7702;51.046;5.184;2023-10-09T15:11:00;13.77;;;10.67;;
15202;SDS011;7702;51.046;5.184;2023-10-09T15:13:26;18.93;;;10.97;;
15202;SDS011;7702;51.046;5.184;2023-10-09T15:15:53;14.33;;;11.73;;
15202;SDS011;7702;51.046;5.184;2023-10-09T15:18:20;16.73;;;11.33;;
15202;SDS011;7702;51.046;5.184;2023-10-09T15:20:47;14.77;;;10.63;;
15202;SDS011;7702;51.046;5.184;2023-10-09T15:23:13;15.57;;;11.87;;
15202;SDS011;7702;51.046;5.184;2023-10-09T15:25:39;13.37;;;11.53;;
15202;SDS011;7702;51.046;5.184;2023-10-09T15:28:07;16.07;;;11.70;;
15202;SDS011;7702;51.046;5.184;2023-10-09T15:30:34;19.47;;;12.47;;
15202;SDS011;7702;51.046;5.184;2023-10-09T15:33:04;15.93;;;12.37;;
15202;SDS011;7702;51.046;5.184;2023-10-09T15:35:30;17.07;;;13.47;;
15202;SDS011;7702;51.046;5.184;2023-10-09T15:37:59;14.60;;;12.77;;
15202;SDS011;7702;51.046;5.184;2023-10-09T15:40:30;17.53;;;13.00;;
15202;SDS011;7702;51.046;5.184;2023-10-09T15:42:58;15.80;;;13.57;;
15202;SDS011;7702;51.046;5.184;2023-10-09T15:45:24;16.27;;;13.00;;
15202;SDS011;7702;51.046;5.184;2023-10-09T15:47:54;16.97;;;13.53;;
15202;SDS011;7702;51.046;5.184;2023-10-09T15:50:20;15.30;;;11.93;;
15202;SDS011;7702;51.046;5.184;2023-10-09T15:52:52;14.73;;;12.20;;
15202;SDS011;7702;51.046;5.184;2023-10-09T15:55:20;14.37;;;12.67;;
15202;SDS011;7702;51.046;5.184;2023-10-09T15:57:49;14.27;;;11.77;;
15202;SDS011;7702;51.046;5.184;2023-10-09T16:00:18;14.13;;;12.20;;
15202;SDS011;7702;51.046;5.184;2023-10-09T16:02:48;18.60;;;12.00;;
15202;SDS011;7702;51.046;5.184;2023-10-09T16:05:15;13.77;;;12.00;;
15202;SDS011;7702;51.046;5.184;2023-10-09T16:07:41;14.27;;;11.87;;
15202;SDS011;7702;51.046;5.184;2023-10-09T16:10:08;15.30;;;12.90;;
15202;SDS011;7702;51.046;5.184;2023-10-09T16:12:36;15.67;;;12.63;;